PWSweather.com
Personal Weather Stations
Station Observations

YeovilGB

Lat: 50.949, Lon: -2.627

Elevation: 70

Station Type: Vantage Pro

http://www.yeovil-weather.me.uk/

High Low Average
Temperature 54.5°F12.5°C 49.0°F9.4°C 52.0°F11.1°C
Dew Point 53.3°F11.8°C 47.9°F8.8°C 50.8°F10.4°C
Winds 6.9 mph 11.1 kmh Calm Calm 1.0 mph S1.6 kmh S
Wind Gusts 16.1 mph25.9 kmh -- 4.0 mph6.4 kmh
Humidity 98% 92% 96%
Pressure 29.55 in1000.7 mb 29.49 in998.6 mb -
Precipitation 0.13 in3.3 mm - -
Hour Temp Dew Point Humidity Winds Wind Gusts Pressure Precip Precip Rate Daily Precip Total
12:00 AM 50.6°F10.3°C 48.7°F9.3°C 93% 5.8 mph SE9.3 kmh SE 11.5 mph18.5 kmh 29.55 in1000.7 mb - 0.00 in0.0 mm 0.00 in0.0 mm
12:10 AM 50.6°F10.3°C 48.7°F9.3°C 93% 3.5 mph SE5.6 kmh SE 11.5 mph18.5 kmh 29.55 in1000.7 mb - 0.00 in0.0 mm 0.00 in0.0 mm
12:20 AM 50.7°F10.4°C 48.7°F9.3°C 93% 5.8 mph SSE9.3 kmh SSE 11.5 mph18.5 kmh 29.55 in1000.7 mb - 0.00 in0.0 mm 0.00 in0.0 mm
12:30 AM 50.6°F10.3°C 48.7°F9.3°C 93% 3.5 mph SE5.6 kmh SE 16.1 mph25.9 kmh 29.54 in1000.3 mb - 0.00 in0.0 mm 0.00 in0.0 mm
12:40 AM 50.5°F10.3°C 48.3°F9.1°C 92% 5.8 mph SSE9.3 kmh SSE 13.8 mph22.2 kmh 29.54 in1000.3 mb - 0.00 in0.0 mm 0.00 in0.0 mm
12:50 AM 50.5°F10.3°C 48.2°F9.0°C 92% 2.3 mph SE3.7 kmh SE 11.5 mph18.5 kmh 29.53 in1000.0 mb - 0.00 in0.0 mm 0.00 in0.0 mm
01:00 AM 50.5°F10.3°C 48.3°F9.1°C 92% 2.3 mph SE3.7 kmh SE 11.5 mph18.5 kmh 29.53 in1000.0 mb - 0.00 in0.0 mm 0.00 in0.0 mm
01:10 AM 50.5°F10.3°C 48.3°F9.1°C 92% 4.6 mph SE7.4 kmh SE 9.2 mph14.8 kmh 29.53 in1000.0 mb - 0.00 in0.0 mm 0.00 in0.0 mm
01:20 AM 50.4°F10.2°C 48.5°F9.2°C 93% 3.5 mph SE5.6 kmh SE 11.5 mph18.5 kmh 29.53 in1000.0 mb - 0.00 in0.0 mm 0.00 in0.0 mm
01:30 AM 50.3°F10.2°C 48.6°F9.2°C 94% 1.2 mph ESE1.9 kmh ESE 6.9 mph11.1 kmh 29.53 in1000.0 mb - 0.00 in0.0 mm 0.00 in0.0 mm
01:40 AM 50.1°F10.1°C 48.4°F9.1°C 94% Calm Calm 1.2 mph1.9 kmh 29.52 in999.7 mb - 0.00 in0.0 mm 0.00 in0.0 mm
01:50 AM 50.0°F10.0°C 48.6°F9.2°C 95% Calm Calm -- 29.52 in999.7 mb - 0.00 in0.0 mm 0.00 in0.0 mm
02:00 AM 50.0°F10.0°C 48.6°F9.2°C 95% Calm Calm 4.6 mph7.4 kmh 29.52 in999.7 mb - 0.00 in0.0 mm 0.00 in0.0 mm
02:10 AM 50.0°F10.0°C 48.6°F9.2°C 95% 1.2 mph ESE1.9 kmh ESE 5.8 mph9.3 kmh 29.52 in999.7 mb - 0.00 in0.0 mm 0.00 in0.0 mm
02:20 AM 50.0°F10.0°C 48.6°F9.2°C 95% 1.2 mph SE1.9 kmh SE 2.3 mph3.7 kmh 29.51 in999.3 mb - 0.01 in0.3 mm 0.01 in0.3 mm
02:30 AM 50.1°F10.1°C 49.0°F9.4°C 96% 4.6 mph SE7.4 kmh SE 12.7 mph20.4 kmh 29.51 in999.3 mb - 0.00 in0.0 mm 0.01 in0.3 mm
02:40 AM 50.2°F10.1°C 49.1°F9.5°C 96% 2.3 mph SE3.7 kmh SE 6.9 mph11.1 kmh 29.51 in999.3 mb - 0.00 in0.0 mm 0.01 in0.3 mm
02:50 AM 50.4°F10.2°C 49.3°F9.6°C 96% Calm Calm -- 29.51 in999.3 mb - 0.00 in0.0 mm 0.01 in0.3 mm
03:00 AM 50.5°F10.3°C 49.4°F9.7°C 96% Calm Calm -- 29.51 in999.3 mb - 0.01 in0.3 mm 0.02 in0.5 mm
03:10 AM 50.6°F10.3°C 49.5°F9.7°C 96% 1.2 mph ESE1.9 kmh ESE 6.9 mph11.1 kmh 29.50 in999.0 mb - 0.00 in0.0 mm 0.02 in0.5 mm
03:20 AM 50.7°F10.4°C 49.6°F9.8°C 96% 2.3 mph SE3.7 kmh SE 11.5 mph18.5 kmh 29.50 in999.0 mb - 0.00 in0.0 mm 0.02 in0.5 mm
03:30 AM 50.8°F10.4°C 50.0°F10.0°C 97% 2.3 mph SE3.7 kmh SE 10.4 mph16.7 kmh 29.50 in999.0 mb - 0.00 in0.0 mm 0.02 in0.5 mm
03:40 AM 51.0°F10.6°C 50.2°F10.1°C 97% 3.5 mph SE5.6 kmh SE 3.5 mph5.6 kmh 29.50 in999.0 mb - 0.00 in0.0 mm 0.02 in0.5 mm
03:50 AM 51.2°F10.7°C 50.4°F10.2°C 97% 1.2 mph SE1.9 kmh SE -- 29.50 in999.0 mb - 0.00 in0.0 mm 0.02 in0.5 mm
04:00 AM 51.4°F10.8°C 50.6°F10.3°C 97% 2.3 mph SE3.7 kmh SE 11.5 mph18.5 kmh 29.50 in999.0 mb - 0.01 in0.3 mm 0.02 in0.5 mm
04:10 AM 51.5°F10.8°C 50.7°F10.4°C 97% 4.6 mph SE7.4 kmh SE 11.5 mph18.5 kmh 29.49 in998.6 mb - 0.00 in0.0 mm 0.02 in0.5 mm
04:20 AM 51.6°F10.9°C 50.8°F10.4°C 97% 1.2 mph SE1.9 kmh SE 8.1 mph13.0 kmh 29.49 in998.6 mb - 0.02 in0.5 mm 0.05 in1.3 mm
04:30 AM 51.7°F10.9°C 50.9°F10.5°C 97% 3.5 mph SE5.6 kmh SE 5.8 mph9.3 kmh 29.49 in998.6 mb - 0.00 in0.0 mm 0.05 in1.3 mm
04:40 AM 51.8°F11.0°C 51.0°F10.6°C 97% 2.3 mph SE3.7 kmh SE 11.5 mph18.5 kmh 29.49 in998.6 mb - 0.00 in0.0 mm 0.05 in1.3 mm
04:50 AM 51.9°F11.1°C 51.1°F10.6°C 97% 1.2 mph SSE1.9 kmh SSE 1.2 mph1.9 kmh 29.49 in998.6 mb - 0.01 in0.3 mm 0.06 in1.5 mm
05:00 AM 51.9°F11.1°C 51.1°F10.6°C 97% 3.5 mph SE5.6 kmh SE 4.6 mph7.4 kmh 29.49 in998.6 mb - 0.00 in0.0 mm 0.06 in1.5 mm
05:10 AM 52.1°F11.2°C 51.3°F10.7°C 97% Calm Calm 10.4 mph16.7 kmh 29.49 in998.6 mb - 0.00 in0.0 mm 0.06 in1.5 mm
05:20 AM 52.2°F11.2°C 51.4°F10.8°C 97% 1.2 mph SSE1.9 kmh SSE -- 29.49 in998.6 mb - 0.00 in0.0 mm 0.06 in1.5 mm
05:30 AM 52.3°F11.3°C 51.5°F10.8°C 97% 4.6 mph SSE7.4 kmh SSE 9.2 mph14.8 kmh 29.49 in998.6 mb - 0.00 in0.0 mm 0.06 in1.5 mm
05:40 AM 52.4°F11.3°C 51.6°F10.9°C 97% 5.8 mph SE9.3 kmh SE 12.7 mph20.4 kmh 29.49 in998.6 mb - 0.00 in0.0 mm 0.06 in1.5 mm
05:50 AM 52.4°F11.3°C 51.6°F10.9°C 97% 5.8 mph SE9.3 kmh SE 15.0 mph24.1 kmh 29.49 in998.6 mb - 0.01 in0.3 mm 0.06 in1.5 mm
06:00 AM 52.5°F11.4°C 51.7°F10.9°C 97% 3.5 mph S5.6 kmh S 10.4 mph16.7 kmh 29.49 in998.6 mb - 0.00 in0.0 mm 0.06 in1.5 mm
06:10 AM 52.6°F11.4°C 51.7°F10.9°C 97% 3.5 mph SE5.6 kmh SE 11.5 mph18.5 kmh 29.50 in999.0 mb - 0.00 in0.0 mm 0.06 in1.5 mm
06:20 AM 52.6°F11.4°C 51.8°F11.0°C 97% 4.6 mph SSE7.4 kmh SSE 6.9 mph11.1 kmh 29.50 in999.0 mb - 0.00 in0.0 mm 0.06 in1.5 mm
06:30 AM 52.6°F11.4°C 51.8°F11.0°C 97% Calm Calm -- 29.50 in999.0 mb - 0.01 in0.3 mm 0.07 in1.8 mm
06:40 AM 52.6°F11.4°C 51.8°F11.0°C 97% 1.2 mph SE1.9 kmh SE 1.2 mph1.9 kmh 29.50 in999.0 mb - 0.02 in0.5 mm 0.08 in2.0 mm
06:50 AM 52.7°F11.5°C 51.8°F11.0°C 97% Calm Calm -- 29.50 in999.0 mb - 0.01 in0.3 mm 0.09 in2.3 mm
07:00 AM 52.7°F11.5°C 51.9°F11.1°C 97% Calm Calm 4.6 mph7.4 kmh 29.50 in999.0 mb - 0.00 in0.0 mm 0.09 in2.3 mm
07:10 AM 52.7°F11.5°C 51.9°F11.1°C 97% Calm Calm 4.6 mph7.4 kmh 29.50 in999.0 mb - 0.01 in0.3 mm 0.09 in2.3 mm
07:20 AM 52.7°F11.5°C 51.9°F11.1°C 97% 1.2 mph SSE1.9 kmh SSE 4.6 mph7.4 kmh 29.50 in999.0 mb - 0.00 in0.0 mm 0.09 in2.3 mm
07:30 AM 52.7°F11.5°C 51.9°F11.1°C 97% 6.9 mph S11.1 kmh S 9.2 mph14.8 kmh 29.50 in999.0 mb - 0.00 in0.0 mm 0.09 in2.3 mm
07:40 AM 52.7°F11.5°C 51.9°F11.1°C 97% 4.6 mph SE7.4 kmh SE 6.9 mph11.1 kmh 29.50 in999.0 mb - 0.00 in0.0 mm 0.09 in2.3 mm
07:50 AM 52.7°F11.5°C 51.9°F11.1°C 97% 2.3 mph SE3.7 kmh SE 9.2 mph14.8 kmh 29.51 in999.3 mb - 0.00 in0.0 mm 0.09 in2.3 mm
08:00 AM 52.8°F11.6°C 52.3°F11.3°C 98% 1.2 mph S1.9 kmh S -- 29.51 in999.3 mb - 0.00 in0.0 mm 0.09 in2.3 mm
08:10 AM 52.9°F11.6°C 52.0°F11.1°C 97% Calm Calm -- 29.50 in999.0 mb - 0.00 in0.0 mm 0.09 in2.3 mm
08:20 AM 52.9°F11.6°C 52.1°F11.2°C 97% Calm Calm -- 29.51 in999.3 mb - 0.01 in0.3 mm 0.10 in2.5 mm
08:30 AM 52.9°F11.6°C 52.1°F11.2°C 97% Calm Calm -- 29.51 in999.3 mb - 0.00 in0.0 mm 0.10 in2.5 mm
08:40 AM 52.8°F11.6°C 52.0°F11.1°C 97% 2.3 mph S3.7 kmh S 11.5 mph18.5 kmh 29.51 in999.3 mb - 0.00 in0.0 mm 0.10 in2.5 mm
08:50 AM 52.5°F11.4°C 51.7°F10.9°C 97% 1.2 mph S1.9 kmh S 4.6 mph7.4 kmh 29.51 in999.3 mb - 0.00 in0.0 mm 0.10 in2.5 mm
09:00 AM 52.4°F11.3°C 51.6°F10.9°C 97% 1.2 mph S1.9 kmh S 6.9 mph11.1 kmh 29.51 in999.3 mb - 0.00 in0.0 mm 0.10 in2.5 mm
09:10 AM 52.4°F11.3°C 51.5°F10.8°C 97% Calm Calm -- 29.52 in999.7 mb - 0.00 in0.0 mm 0.10 in2.5 mm
09:20 AM 52.4°F11.3°C 51.6°F10.9°C 97% Calm Calm -- 29.52 in999.7 mb - 0.00 in0.0 mm 0.10 in2.5 mm
09:30 AM 52.4°F11.3°C 51.6°F10.9°C 97% Calm Calm -- 29.52 in999.7 mb - 0.00 in0.0 mm 0.10 in2.5 mm
09:40 AM 52.5°F11.4°C 51.7°F10.9°C 97% Calm Calm -- 29.52 in999.7 mb - 0.00 in0.0 mm 0.10 in2.5 mm
09:50 AM 52.7°F11.5°C 51.9°F11.1°C 97% Calm Calm -- 29.53 in1000.0 mb - 0.00 in0.0 mm 0.10 in2.5 mm
10:00 AM 52.9°F11.6°C 52.1°F11.2°C 97% 1.2 mph SSE1.9 kmh SSE 3.5 mph5.6 kmh 29.53 in1000.0 mb - 0.00 in0.0 mm 0.10 in2.5 mm
10:10 AM 53.1°F11.7°C 52.3°F11.3°C 97% Calm Calm -- 29.53 in1000.0 mb - 0.00 in0.0 mm 0.10 in2.5 mm
10:20 AM 53.7°F12.1°C 52.9°F11.6°C 97% Calm Calm -- 29.53 in1000.0 mb - 0.00 in0.0 mm 0.10 in2.5 mm
10:30 AM 53.9°F12.2°C 53.1°F11.7°C 97% 4.6 mph SSE7.4 kmh SSE 6.9 mph11.1 kmh 29.54 in1000.3 mb - 0.00 in0.0 mm 0.10 in2.5 mm
10:40 AM 53.8°F12.1°C 53.0°F11.7°C 97% Calm Calm -- 29.54 in1000.3 mb - 0.00 in0.0 mm 0.10 in2.5 mm
10:50 AM 53.8°F12.1°C 53.0°F11.7°C 97% Calm Calm -- 29.54 in1000.3 mb - 0.00 in0.0 mm 0.10 in2.5 mm
11:00 AM 54.0°F12.2°C 52.9°F11.6°C 96% Calm Calm -- 29.54 in1000.3 mb - 0.00 in0.0 mm 0.10 in2.5 mm
11:10 AM 54.0°F12.2°C 52.9°F11.6°C 96% Calm Calm 2.3 mph3.7 kmh 29.54 in1000.3 mb - 0.00 in0.0 mm 0.10 in2.5 mm
11:20 AM 53.7°F12.1°C 52.3°F11.3°C 95% Calm Calm 3.5 mph5.6 kmh 29.53 in1000.0 mb - 0.00 in0.0 mm 0.10 in2.5 mm
11:30 AM 53.9°F12.2°C 52.5°F11.4°C 95% 4.6 mph S7.4 kmh S 13.8 mph22.2 kmh 29.54 in1000.3 mb - 0.00 in0.0 mm 0.10 in2.5 mm
11:40 AM 53.9°F12.2°C 52.2°F11.2°C 94% 2.3 mph SSW3.7 kmh SSW 5.8 mph9.3 kmh 29.53 in1000.0 mb - 0.00 in0.0 mm 0.10 in2.5 mm
11:50 AM 54.2°F12.3°C 52.5°F11.4°C 94% Calm Calm 2.3 mph3.7 kmh 29.53 in1000.0 mb - 0.00 in0.0 mm 0.10 in2.5 mm
12:00 PM 54.2°F12.3°C 52.2°F11.2°C 93% 1.2 mph S1.9 kmh S 6.9 mph11.1 kmh 29.53 in1000.0 mb - 0.00 in0.0 mm 0.10 in2.5 mm
12:10 PM 54.2°F12.3°C 52.2°F11.2°C 93% Calm Calm -- 29.53 in1000.0 mb - 0.00 in0.0 mm 0.10 in2.5 mm
12:20 PM 54.2°F12.3°C 52.2°F11.2°C 93% 3.5 mph SSW5.6 kmh SSW 5.8 mph9.3 kmh 29.53 in1000.0 mb - 0.00 in0.0 mm 0.10 in2.5 mm
12:30 PM 54.2°F12.3°C 52.5°F11.4°C 94% 1.2 mph SSE1.9 kmh SSE -- 29.53 in1000.0 mb - 0.00 in0.0 mm 0.10 in2.5 mm
12:40 PM 54.2°F12.3°C 52.5°F11.4°C 94% Calm Calm 2.3 mph3.7 kmh 29.53 in1000.0 mb - 0.00 in0.0 mm 0.10 in2.5 mm
12:50 PM 54.2°F12.3°C 52.8°F11.6°C 95% Calm Calm -- 29.53 in1000.0 mb - 0.02 in0.5 mm 0.12 in3.0 mm
01:00 PM 54.4°F12.4°C 53.0°F11.7°C 95% Calm Calm -- 29.53 in1000.0 mb - 0.01 in0.3 mm 0.13 in3.3 mm
01:10 PM 54.4°F12.4°C 53.0°F11.7°C 95% Calm Calm -- 29.53 in1000.0 mb - 0.00 in0.0 mm 0.13 in3.3 mm
01:20 PM 54.5°F12.5°C 53.1°F11.7°C 95% Calm Calm -- 29.52 in999.7 mb - 0.00 in0.0 mm 0.13 in3.3 mm
01:30 PM 54.5°F12.5°C 53.1°F11.7°C 95% Calm Calm -- 29.52 in999.7 mb - 0.00 in0.0 mm 0.13 in3.3 mm
01:40 PM 54.5°F12.5°C 53.1°F11.7°C 95% Calm Calm 3.5 mph5.6 kmh 29.53 in1000.0 mb - 0.00 in0.0 mm 0.13 in3.3 mm
01:50 PM 54.4°F12.4°C 53.3°F11.8°C 96% Calm Calm -- 29.53 in1000.0 mb - 0.00 in0.0 mm 0.13 in3.3 mm
02:00 PM 54.1°F12.3°C 53.0°F11.7°C 96% 1.2 mph S1.9 kmh S 6.9 mph11.1 kmh 29.52 in999.7 mb - 0.00 in0.0 mm 0.13 in3.3 mm
02:10 PM 54.1°F12.3°C 53.0°F11.7°C 96% Calm Calm -- 29.52 in999.7 mb - 0.00 in0.0 mm 0.13 in3.3 mm
02:20 PM 54.1°F12.3°C 53.0°F11.7°C 96% 1.2 mph S1.9 kmh S 8.1 mph13.0 kmh 29.52 in999.7 mb - 0.00 in0.0 mm 0.13 in3.3 mm
02:30 PM 54.0°F12.2°C 52.9°F11.6°C 96% 2.3 mph S3.7 kmh S 4.6 mph7.4 kmh 29.53 in1000.0 mb - 0.00 in0.0 mm 0.13 in3.3 mm
02:40 PM 54.0°F12.2°C 52.6°F11.4°C 95% 4.6 mph S7.4 kmh S 11.5 mph18.5 kmh 29.53 in1000.0 mb - 0.00 in0.0 mm 0.13 in3.3 mm
02:50 PM 54.1°F12.3°C 53.0°F11.7°C 96% 1.2 mph S1.9 kmh S -- 29.53 in1000.0 mb - 0.00 in0.0 mm 0.13 in3.3 mm
03:00 PM 54.2°F12.3°C 52.8°F11.6°C 95% 4.6 mph S7.4 kmh S 10.4 mph16.7 kmh 29.53 in1000.0 mb - 0.00 in0.0 mm 0.13 in3.3 mm
03:10 PM 54.0°F12.2°C 52.6°F11.4°C 95% 4.6 mph S7.4 kmh S 15.0 mph24.1 kmh 29.53 in1000.0 mb - 0.00 in0.0 mm 0.13 in3.3 mm
03:20 PM 53.6°F12.0°C 52.2°F11.2°C 95% 1.2 mph S1.9 kmh S 4.6 mph7.4 kmh 29.53 in1000.0 mb - 0.00 in0.0 mm 0.13 in3.3 mm
03:30 PM 53.6°F12.0°C 51.9°F11.1°C 94% Calm Calm 3.5 mph5.6 kmh 29.53 in1000.0 mb - 0.00 in0.0 mm 0.13 in3.3 mm
03:40 PM 53.5°F11.9°C 51.8°F11.0°C 94% Calm Calm -- 29.53 in1000.0 mb - 0.00 in0.0 mm 0.13 in3.3 mm
03:50 PM 53.2°F11.8°C 51.5°F10.8°C 94% 1.2 mph S1.9 kmh S 9.2 mph14.8 kmh 29.53 in1000.0 mb - 0.00 in0.0 mm 0.13 in3.3 mm
04:00 PM 53.1°F11.7°C 51.4°F10.8°C 94% Calm Calm -- 29.54 in1000.3 mb - 0.00 in0.0 mm 0.13 in3.3 mm
04:10 PM 53.0°F11.7°C 51.6°F10.9°C 95% 1.2 mph S1.9 kmh S 5.8 mph9.3 kmh 29.54 in1000.3 mb - 0.00 in0.0 mm 0.13 in3.3 mm
04:20 PM 53.1°F11.7°C 51.7°F10.9°C 95% Calm Calm -- 29.54 in1000.3 mb - 0.00 in0.0 mm 0.13 in3.3 mm
04:30 PM 52.9°F11.6°C 51.5°F10.8°C 95% Calm Calm -- 29.54 in1000.3 mb - 0.00 in0.0 mm 0.13 in3.3 mm
04:40 PM 52.8°F11.6°C 51.4°F10.8°C 95% Calm Calm -- 29.55 in1000.7 mb - 0.00 in0.0 mm 0.13 in3.3 mm
04:50 PM 52.6°F11.4°C 51.2°F10.7°C 95% Calm Calm -- 29.55 in1000.7 mb - 0.00 in0.0 mm 0.13 in3.3 mm
05:00 PM 52.5°F11.4°C 51.1°F10.6°C 95% Calm Calm -- 29.55 in1000.7 mb - 0.00 in0.0 mm 0.13 in3.3 mm
05:10 PM 52.4°F11.3°C 51.0°F10.6°C 95% Calm Calm -- 29.55 in1000.7 mb - 0.00 in0.0 mm 0.13 in3.3 mm
05:20 PM 52.2°F11.2°C 50.8°F10.4°C 95% Calm Calm -- 29.55 in1000.7 mb - 0.00 in0.0 mm 0.13 in3.3 mm
05:30 PM 52.1°F11.2°C 50.7°F10.4°C 95% Calm Calm -- 29.55 in1000.7 mb - 0.00 in0.0 mm 0.13 in3.3 mm
05:40 PM 52.0°F11.1°C 50.6°F10.3°C 95% Calm Calm -- 29.55 in1000.7 mb - 0.00 in0.0 mm 0.13 in3.3 mm
05:50 PM 51.9°F11.1°C 50.5°F10.3°C 95% Calm Calm -- 29.55 in1000.7 mb - 0.00 in0.0 mm 0.13 in3.3 mm
06:00 PM 51.7°F10.9°C 50.3°F10.2°C 95% Calm Calm -- 29.54 in1000.3 mb - 0.00 in0.0 mm 0.13 in3.3 mm
06:10 PM 51.4°F10.8°C 50.0°F10.0°C 95% Calm Calm -- 29.54 in1000.3 mb - 0.00 in0.0 mm 0.13 in3.3 mm
06:20 PM 51.1°F10.6°C 49.7°F9.8°C 95% Calm Calm -- 29.55 in1000.7 mb - 0.00 in0.0 mm 0.13 in3.3 mm
06:30 PM 50.8°F10.4°C 49.5°F9.7°C 95% Calm Calm -- 29.55 in1000.7 mb - 0.00 in0.0 mm 0.13 in3.3 mm
06:40 PM 50.7°F10.4°C 49.6°F9.8°C 96% Calm Calm -- 29.55 in1000.7 mb - 0.00 in0.0 mm 0.13 in3.3 mm
06:50 PM 50.9°F10.5°C 49.8°F9.9°C 96% Calm Calm -- 29.55 in1000.7 mb - 0.00 in0.0 mm 0.13 in3.3 mm
07:00 PM 51.1°F10.6°C 50.0°F10.0°C 96% 1.2 mph SSW1.9 kmh SSW 4.6 mph7.4 kmh 29.55 in1000.7 mb - 0.00 in0.0 mm 0.13 in3.3 mm
07:10 PM 51.1°F10.6°C 50.0°F10.0°C 96% Calm Calm -- 29.55 in1000.7 mb - 0.00 in0.0 mm 0.13 in3.3 mm
07:20 PM 51.2°F10.7°C 50.1°F10.1°C 96% Calm Calm -- 29.55 in1000.7 mb - 0.00 in0.0 mm 0.13 in3.3 mm
07:30 PM 51.3°F10.7°C 50.2°F10.1°C 96% 1.2 mph SSW1.9 kmh SSW 8.1 mph13.0 kmh 29.55 in1000.7 mb - 0.00 in0.0 mm 0.13 in3.3 mm
07:40 PM 51.2°F10.7°C 50.1°F10.1°C 96% Calm Calm -- 29.55 in1000.7 mb - 0.00 in0.0 mm 0.13 in3.3 mm
08:00 PM 51.0°F10.6°C 49.9°F9.9°C 96% Calm Calm -- 29.55 in1000.7 mb - 0.00 in0.0 mm 0.13 in3.3 mm
08:10 PM 50.9°F10.5°C 49.8°F9.9°C 96% Calm Calm -- 29.55 in1000.7 mb - 0.00 in0.0 mm 0.13 in3.3 mm
08:20 PM 50.8°F10.4°C 49.7°F9.8°C 96% Calm Calm -- 29.55 in1000.7 mb - 0.00 in0.0 mm 0.13 in3.3 mm
08:30 PM 50.8°F10.4°C 49.7°F9.8°C 96% Calm Calm -- 29.55 in1000.7 mb - 0.00 in0.0 mm 0.13 in3.3 mm
08:40 PM 50.8°F10.4°C 49.7°F9.8°C 96% Calm Calm -- 29.55 in1000.7 mb - 0.00 in0.0 mm 0.13 in3.3 mm
08:50 PM 50.9°F10.5°C 49.8°F9.9°C 96% Calm Calm -- 29.55 in1000.7 mb - 0.00 in0.0 mm 0.13 in3.3 mm
09:00 PM 50.8°F10.4°C 49.7°F9.8°C 96% Calm Calm -- 29.55 in1000.7 mb - 0.00 in0.0 mm 0.13 in3.3 mm
09:10 PM 50.8°F10.4°C 49.7°F9.8°C 96% Calm Calm -- 29.55 in1000.7 mb - 0.00 in0.0 mm 0.13 in3.3 mm
09:20 PM 50.6°F10.3°C 49.5°F9.7°C 96% Calm Calm -- 29.55 in1000.7 mb - 0.00 in0.0 mm 0.13 in3.3 mm
09:30 PM 50.4°F10.2°C 49.3°F9.6°C 96% Calm Calm -- 29.55 in1000.7 mb - 0.00 in0.0 mm 0.13 in3.3 mm
09:40 PM 50.4°F10.2°C 49.3°F9.6°C 96% Calm Calm 3.5 mph5.6 kmh 29.55 in1000.7 mb - 0.00 in0.0 mm 0.13 in3.3 mm
09:50 PM 50.4°F10.2°C 49.3°F9.6°C 96% Calm Calm -- 29.55 in1000.7 mb - 0.00 in0.0 mm 0.13 in3.3 mm
10:00 PM 50.2°F10.1°C 49.1°F9.5°C 96% Calm Calm -- 29.55 in1000.7 mb - 0.00 in0.0 mm 0.13 in3.3 mm
10:10 PM 50.1°F10.1°C 49.0°F9.4°C 96% Calm Calm -- 29.55 in1000.7 mb - 0.00 in0.0 mm 0.13 in3.3 mm
10:20 PM 50.0°F10.0°C 48.9°F9.4°C 96% Calm Calm 1.2 mph1.9 kmh 29.55 in1000.7 mb - 0.00 in0.0 mm 0.13 in3.3 mm
10:30 PM 49.9°F9.9°C 48.8°F9.3°C 96% Calm Calm -- 29.55 in1000.7 mb - 0.00 in0.0 mm 0.13 in3.3 mm
10:40 PM 49.8°F9.9°C 48.7°F9.3°C 96% Calm Calm -- 29.55 in1000.7 mb - 0.00 in0.0 mm 0.13 in3.3 mm
10:50 PM 49.7°F9.8°C 48.6°F9.2°C 96% Calm Calm -- 29.55 in1000.7 mb - 0.00 in0.0 mm 0.13 in3.3 mm
11:00 PM 49.6°F9.8°C 48.5°F9.2°C 96% Calm Calm -- 29.55 in1000.7 mb - 0.00 in0.0 mm 0.13 in3.3 mm
11:10 PM 49.5°F9.7°C 48.4°F9.1°C 96% Calm Calm -- 29.55 in1000.7 mb - 0.00 in0.0 mm 0.13 in3.3 mm
11:20 PM 49.4°F9.7°C 48.3°F9.1°C 96% Calm Calm -- 29.55 in1000.7 mb - 0.00 in0.0 mm 0.13 in3.3 mm
11:30 PM 49.2°F9.6°C 48.1°F8.9°C 96% Calm Calm -- 29.55 in1000.7 mb - 0.00 in0.0 mm 0.13 in3.3 mm
11:40 PM 49.1°F9.5°C 48.0°F8.9°C 96% Calm Calm -- 29.55 in1000.7 mb - 0.00 in0.0 mm 0.13 in3.3 mm
11:50 PM 49.0°F9.4°C 47.9°F8.8°C 96% Calm Calm -- 29.55 in1000.7 mb - 0.00 in0.0 mm 0.13 in3.3 mm